createdAt,value
2022-10-23T00:01:26.475Z,99822.03
2022-10-23T00:03:58.593Z,99799.56
2022-10-23T00:06:27.995Z,99762.50
2022-10-23T00:08:56.934Z,99790.94
2022-10-23T00:11:27.732Z,99809.88
2022-10-23T00:13:57.704Z,99816.75
2022-10-23T00:16:26.697Z,99790.88
2022-10-23T00:18:56.508Z,99808.13
2022-10-23T00:21:25.783Z,99807.31
2022-10-23T00:23:54.241Z,99752.09
2022-10-23T00:26:22.616Z,99800.41
2022-10-23T00:28:53.122Z,99796.09
2022-10-23T00:31:22.573Z,99749.53
2022-10-23T00:33:51.732Z,99795.25
2022-10-23T00:36:22.562Z,99786.66
2022-10-23T00:38:52.129Z,99790.06
2022-10-23T00:41:22.821Z,99783.16
2022-10-23T00:44:01.024Z,99784.03
2022-10-23T00:46:29.626Z,99777.16
2022-10-23T00:48:58.383Z,99777.16
2022-10-23T00:51:30.384Z,99755.59
2022-10-23T00:54:22.841Z,99765.16
2022-10-23T00:56:49.523Z,99761.69
2022-10-23T00:59:17.973Z,99762.53
2022-10-23T01:01:46.975Z,99757.38
2022-10-23T01:04:15.549Z,99714.28
2022-10-23T01:06:52.131Z,99729.78
2022-10-23T01:09:25.552Z,99680.59
2022-10-23T01:11:57.517Z,99734.94
2022-10-23T01:14:31.127Z,99750.44
2022-10-23T01:17:04.386Z,99716.78
2022-10-23T01:19:45.794Z,99721.03
2022-10-23T01:22:29.766Z,99749.53
2022-10-23T01:24:59.981Z,99742.63
2022-10-23T01:27:33.179Z,99741.75
2022-10-23T01:30:07.112Z,99735.72
2022-10-23T01:32:46.113Z,99732.28
2022-10-23T01:35:17.577Z,99728.78
2022-10-23T01:37:52.817Z,99693.38
2022-10-23T01:40:25.105Z,99720.13
2022-10-23T01:42:57.034Z,99724.31
2022-10-23T01:45:31.792Z,99731.03
2022-10-23T01:48:02.610Z,99714.59
2022-10-23T01:50:31.923Z,99724.84
2022-10-23T01:53:11.190Z,99716.13
2022-10-23T01:58:17.012Z,99715.91
2022-10-23T02:00:46.859Z,99701.22
2022-10-23T02:03:17.748Z,99711.44
2022-10-23T02:05:46.293Z,99693.09
2022-10-23T02:08:15.064Z,99717.19
2022-10-23T02:10:49.342Z,99645.44
2022-10-23T02:13:26.766Z,99705.94
2022-10-23T02:16:02.362Z,99657.53
2022-10-23T02:18:38.137Z,99699.94
2022-10-23T02:21:10.847Z,99686.84
2022-10-23T02:23:41.877Z,99704.16
2022-10-23T02:26:17.358Z,99695.56
2022-10-23T02:28:57.992Z,99685.22
2022-10-23T02:31:26.588Z,99703.34
2022-10-23T02:33:55.184Z,99699.06
2022-10-23T02:36:23.812Z,99699.06
2022-10-23T02:38:52.547Z,99670.50
2022-10-23T02:41:33.305Z,99652.34
2022-10-23T02:44:19.711Z,99668.66
2022-10-23T02:46:52.647Z,99671.25
2022-10-23T02:49:24.844Z,99660.88
2022-10-23T02:52:04.361Z,99644.47
2022-10-23T02:54:51.994Z,99671.94
2022-10-23T02:57:24.922Z,99680.63
2022-10-23T03:00:02.743Z,99675.47
2022-10-23T03:02:35.273Z,99678.03
2022-10-23T03:05:05.144Z,99654.66
2022-10-23T03:07:34.413Z,99663.34
2022-10-23T03:10:08.718Z,99669.41
2022-10-23T03:12:38.078Z,99650.34
2022-10-23T03:15:10.151Z,99670.16
2022-10-23T03:17:38.610Z,99624.47
2022-10-23T03:20:07.985Z,99655.47
2022-10-23T03:22:37.360Z,99662.38
2022-10-23T03:25:06.681Z,99658.03
2022-10-23T03:27:36.697Z,99658.06
2022-10-23T03:30:10.367Z,99658.88
2022-10-23T03:32:41.207Z,99604.59
2022-10-23T03:35:10.105Z,99662.25
2022-10-23T03:37:39.039Z,99618.22
2022-10-23T03:40:08.702Z,99654.44
2022-10-23T03:42:37.080Z,99564.72
2022-10-23T03:45:06.138Z,99641.59
2022-10-23T03:47:41.112Z,99647.56
2022-10-23T03:50:10.936Z,99638.16
2022-10-23T03:52:39.627Z,99607.06
2022-10-23T03:55:09.314Z,99640.72
2022-10-23T03:57:38.313Z,99628.69
2022-10-23T04:00:08.273Z,99612.19
2022-10-23T04:02:46.487Z,99630.34
2022-10-23T04:05:15.466Z,99633.75
2022-10-23T04:07:53.349Z,99635.44
2022-10-23T04:10:21.844Z,99606.13
2022-10-23T04:12:50.227Z,99587.84
2022-10-23T04:15:18.749Z,99626.75
2022-10-23T04:17:49.377Z,99586.09
2022-10-23T04:20:17.928Z,99593.09
2022-10-23T04:22:46.539Z,99594.81
2022-10-23T04:25:16.689Z,99616.31
2022-10-23T04:27:46.076Z,99626.72
2022-10-23T04:30:15.048Z,99624.97
2022-10-23T04:32:43.526Z,99601.69
2022-10-23T04:35:13.333Z,99614.72
2022-10-23T04:37:41.848Z,99601.72
2022-10-23T04:40:11.135Z,99577.63
2022-10-23T04:42:40.970Z,99580.25
2022-10-23T04:45:09.873Z,99615.69
2022-10-23T04:47:38.721Z,99611.47
2022-10-23T04:50:08.213Z,99618.41
2022-10-23T04:52:58.898Z,99559.03
2022-10-23T04:55:50.524Z,99603.13
2022-10-23T04:58:25.193Z,99605.72
2022-10-23T05:00:54.434Z,99580.75
2022-10-23T05:03:26.910Z,99603.06
2022-10-23T05:05:56.746Z,99625.50
2022-10-23T05:08:26.716Z,99621.22
2022-10-23T05:11:13.694Z,99618.72
2022-10-23T05:13:46.609Z,99622.13
2022-10-23T05:16:27.755Z,99620.47
2022-10-23T05:18:56.146Z,99576.69
2022-10-23T05:21:26.728Z,99624.97
2022-10-23T05:23:57.491Z,99619.13
2022-10-23T05:26:26.421Z,99597.78
2022-10-23T05:28:54.978Z,99614.19
2022-10-23T05:31:25.842Z,99611.00
2022-10-23T05:33:58.357Z,99584.44
2022-10-23T05:36:27.052Z,99594.13
2022-10-23T05:39:01.142Z,99605.44
2022-10-23T05:41:29.559Z,99605.59
2022-10-23T05:44:00.021Z,99604.81
2022-10-23T05:46:46.782Z,99598.91
2022-10-23T05:49:33.711Z,99594.63
2022-10-23T05:52:34.464Z,99583.56
2022-10-23T05:55:19.716Z,99588.75
2022-10-23T05:58:07.400Z,99587.19
2022-10-23T06:01:17.513Z,99565.50
2022-10-23T06:04:06.859Z,99561.38
2022-10-23T06:07:07.606Z,99586.34
2022-10-23T06:09:36.071Z,99584.69
2022-10-23T06:12:06.440Z,99551.19
2022-10-23T06:14:35.380Z,99531.50
2022-10-23T06:17:04.122Z,99564.34
2022-10-23T06:19:40.871Z,99557.59
2022-10-23T06:22:09.353Z,99555.03
2022-10-23T06:24:59.818Z,99542.19
2022-10-23T06:27:30.468Z,99548.22
2022-10-23T06:29:58.824Z,99481.97
2022-10-23T06:32:32.748Z,99543.97
2022-10-23T06:35:11.197Z,99532.84
2022-10-23T06:37:40.056Z,99443.41
2022-10-23T06:40:19.744Z,99514.84
2022-10-23T06:43:10.959Z,99526.09
2022-10-23T06:46:02.277Z,99502.84
2022-10-23T06:49:02.647Z,99524.41
2022-10-23T06:51:34.766Z,99527.00
2022-10-23T06:54:03.111Z,99521.03
2022-10-23T06:56:54.593Z,99516.72
2022-10-23T06:59:32.404Z,99511.59
2022-10-23T07:02:01.855Z,99483.19
2022-10-23T07:04:30.345Z,99508.97
2022-10-23T07:06:59.632Z,99495.22
2022-10-23T07:09:36.919Z,99509.00
2022-10-23T07:12:13.995Z,99500.41
2022-10-23T07:14:50.391Z,99483.19
2022-10-23T07:17:18.889Z,99496.97
2022-10-23T07:19:47.990Z,99454.88
2022-10-23T07:22:17.265Z,99487.53
2022-10-23T07:25:06.756Z,99496.97
2022-10-23T07:27:41.126Z,99454.88
2022-10-23T07:30:14.406Z,99483.25
2022-10-23T07:32:50.671Z,99435.97
2022-10-23T07:35:28.187Z,99454.88
2022-10-23T07:38:04.831Z,99478.94
2022-10-23T07:40:36.776Z,99466.91
2022-10-23T07:43:05.991Z,99484.13
2022-10-23T07:45:35.848Z,99458.31
2022-10-23T07:48:11.750Z,99483.22
2022-10-23T07:51:08.624Z,99474.63
2022-10-23T07:53:41.645Z,99452.28
2022-10-23T07:56:30.301Z,99448.84
2022-10-23T07:59:17.716Z,99442.00
2022-10-23T08:01:56.659Z,99438.53
2022-10-23T08:04:38.929Z,99460.88
2022-10-23T08:07:25.945Z,99453.16
2022-10-23T08:09:57.503Z,99425.63
2022-10-23T08:12:27.038Z,99471.16
2022-10-23T08:14:56.558Z,99465.06
2022-10-23T08:17:29.217Z,99469.38
2022-10-23T08:20:14.801Z,99430.72
2022-10-23T08:22:45.692Z,99461.59
2022-10-23T08:25:24.698Z,99468.50
2022-10-23T08:27:54.753Z,99449.69
2022-10-23T08:30:23.418Z,99446.28
2022-10-23T08:32:53.272Z,99464.34
2022-10-23T08:35:22.210Z,99447.97
2022-10-23T08:37:51.018Z,99456.59
2022-10-23T08:40:23.426Z,99403.31
2022-10-23T08:43:17.567Z,99415.31
2022-10-23T08:46:05.117Z,99446.25
2022-10-23T08:49:00.027Z,99448.00
2022-10-23T08:52:04.694Z,99427.34
2022-10-23T08:54:40.444Z,99451.41
2022-10-23T08:57:14.146Z,99449.69
2022-10-23T08:59:47.948Z,99394.75
2022-10-23T09:02:19.789Z,99438.53
2022-10-23T09:04:50.741Z,99393.88
2022-10-23T09:07:29.731Z,99435.13
2022-10-23T09:10:05.500Z,99438.56
2022-10-23T09:12:33.916Z,99427.34
2022-10-23T09:15:21.040Z,99419.56
2022-10-23T09:17:51.170Z,99350.84
2022-10-23T09:20:25.894Z,99424.66
2022-10-23T09:22:59.604Z,99424.66
2022-10-23T09:25:30.044Z,99421.19
2022-10-23T09:28:02.916Z,99421.19
2022-10-23T09:30:36.409Z,99420.31
2022-10-23T09:33:15.779Z,99367.94
2022-10-23T09:35:56.320Z,99412.59
2022-10-23T09:38:29.284Z,99403.97
2022-10-23T09:40:59.402Z,99377.38
2022-10-23T09:43:28.828Z,99397.91
2022-10-23T09:46:05.195Z,99395.31
2022-10-23T09:48:42.476Z,99348.13
2022-10-23T09:51:21.037Z,99365.28
2022-10-23T09:53:51.718Z,99372.19
2022-10-23T09:56:28.294Z,99398.00
2022-10-23T09:58:58.672Z,99395.53
2022-10-23T10:01:28.976Z,99383.50
2022-10-23T10:04:06.707Z,99382.63
2022-10-23T10:06:37.542Z,99388.63
2022-10-23T10:09:09.877Z,99380.09
2022-10-23T10:11:42.873Z,99373.19
2022-10-23T10:14:28.557Z,99364.63
2022-10-23T10:17:01.012Z,99371.50
2022-10-23T10:19:41.101Z,99364.59
2022-10-23T10:22:19.040Z,99357.75
2022-10-23T10:24:50.977Z,99363.75
2022-10-23T10:27:30.400Z,99357.78
2022-10-23T10:30:06.074Z,99365.47
2022-10-23T10:32:40.580Z,99354.28
2022-10-23T10:35:21.673Z,99331.97
2022-10-23T10:38:14.076Z,99353.44
2022-10-23T10:40:44.199Z,99355.97
2022-10-23T10:43:25.829Z,99351.66
2022-10-23T10:45:59.139Z,99349.13
2022-10-23T10:48:40.863Z,99315.59
2022-10-23T10:51:46.070Z,99342.22
2022-10-23T10:54:37.636Z,99336.19
2022-10-23T10:57:12.908Z,99339.59
2022-10-23T10:59:45.900Z,99337.88
2022-10-23T11:02:25.346Z,99328.47
2022-10-23T11:04:58.416Z,99317.28
2022-10-23T11:07:35.635Z,99337.09
2022-10-23T11:10:22.646Z,99264.13
2022-10-23T11:12:51.472Z,99296.72
2022-10-23T11:15:22.303Z,99294.13
2022-10-23T11:17:52.469Z,99309.56
2022-10-23T11:20:33.099Z,99294.94
2022-10-23T11:23:09.940Z,99304.41
2022-10-23T11:25:56.665Z,99300.09
2022-10-23T11:28:35.539Z,99292.44
2022-10-23T11:31:13.501Z,99293.25
2022-10-23T11:34:02.953Z,99295.84
2022-10-23T11:36:44.063Z,99268.38
2022-10-23T11:39:30.860Z,99271.81
2022-10-23T11:42:17.424Z,99265.84
2022-10-23T11:44:47.001Z,99206.66
2022-10-23T11:47:37.983Z,99269.28
2022-10-23T11:50:27.017Z,99261.56
2022-10-23T11:53:17.107Z,99282.16
2022-10-23T11:56:06.862Z,99245.28
2022-10-23T11:58:45.324Z,99274.41
2022-10-23T12:01:30.084Z,99276.09
2022-10-23T12:04:01.033Z,99246.91
2022-10-23T12:06:32.342Z,99271.78
2022-10-23T12:09:03.551Z,99267.47
2022-10-23T12:11:44.069Z,99258.88
2022-10-23T12:14:29.298Z,99265.72
2022-10-23T12:16:57.742Z,99263.13
2022-10-23T12:19:27.790Z,99264.84
2022-10-23T12:21:59.174Z,99251.19
2022-10-23T12:24:39.932Z,99265.75
2022-10-23T12:27:18.165Z,99252.03
2022-10-23T12:30:05.579Z,99255.47
2022-10-23T12:32:48.243Z,99266.63
2022-10-23T12:35:49.396Z,99249.47
2022-10-23T12:38:20.094Z,99240.13
2022-10-23T12:40:53.290Z,99236.66
2022-10-23T12:43:27.955Z,99207.50
2022-10-23T12:45:59.637Z,99248.66
2022-10-23T12:48:28.099Z,99227.22
2022-10-23T12:50:57.128Z,99246.94
2022-10-23T12:53:26.279Z,99242.63
2022-10-23T12:56:01.639Z,99222.88
2022-10-23T12:58:32.169Z,99223.78
2022-10-23T13:01:07.419Z,99236.66
2022-10-23T13:03:36.889Z,99235.81
2022-10-23T13:06:06.223Z,99212.66
2022-10-23T13:08:36.229Z,99219.47
2022-10-23T13:11:43.231Z,99163.75
2022-10-23T13:14:15.559Z,99225.47
2022-10-23T13:16:45.531Z,99218.59
2022-10-23T13:19:26.127Z,99195.50
2022-10-23T13:21:54.626Z,99216.09
2022-10-23T13:24:24.160Z,99191.22
2022-10-23T13:26:52.840Z,99209.22
2022-10-23T13:29:22.983Z,99189.50
2022-10-23T13:31:53.132Z,99182.63
2022-10-23T13:34:31.595Z,99210.94
2022-10-23T13:37:03.324Z,99191.19
2022-10-23T13:39:33.331Z,99204.03
2022-10-23T13:42:07.341Z,99214.34
2022-10-23T13:44:37.429Z,99198.88
2022-10-23T13:47:07.622Z,99204.88
2022-10-23T13:49:36.102Z,99199.72
2022-10-23T13:52:04.631Z,99198.03
2022-10-23T13:54:33.189Z,99184.28
2022-10-23T13:57:01.677Z,99198.00
2022-10-23T13:59:30.179Z,99194.56
2022-10-23T14:01:59.354Z,99180.88
2022-10-23T14:04:29.342Z,99194.56
2022-10-23T14:06:58.741Z,99169.69
2022-10-23T14:09:27.303Z,99187.69
2022-10-23T14:11:55.778Z,99186.84
2022-10-23T14:14:24.308Z,99178.28
2022-10-23T14:16:53.394Z,99172.31
2022-10-23T14:19:21.928Z,99185.19
2022-10-23T14:21:51.778Z,99185.22
2022-10-23T14:24:20.247Z,99183.50
2022-10-23T14:26:48.695Z,99183.47
2022-10-23T14:29:23.060Z,99161.19
2022-10-23T14:31:52.595Z,99174.91
2022-10-23T14:34:21.095Z,99146.59
2022-10-23T14:39:25.124Z,99154.28
2022-10-23T14:41:53.639Z,99166.25
2022-10-23T14:44:22.087Z,99169.69
2022-10-23T14:46:50.584Z,99138.81
2022-10-23T14:49:19.156Z,99155.91
2022-10-23T14:51:48.665Z,99113.03
2022-10-23T14:54:19.286Z,99138.72
2022-10-23T14:56:47.756Z,99155.00
2022-10-23T14:59:16.327Z,99149.84
2022-10-23T15:01:48.431Z,99142.09
2022-10-23T15:04:17.177Z,99149.88
2022-10-23T15:06:47.282Z,99140.47
2022-10-23T15:09:16.492Z,99131.06
2022-10-23T15:11:46.372Z,99133.66
2022-10-23T15:14:15.030Z,99115.63
2022-10-23T15:16:43.469Z,99101.03
2022-10-23T15:19:17.068Z,99134.44
2022-10-23T15:21:48.044Z,99134.47
2022-10-23T15:24:16.600Z,99137.88
2022-10-23T15:26:47.016Z,99125.84
2022-10-23T15:29:16.047Z,99109.66
2022-10-23T15:31:50.248Z,99111.31
2022-10-23T15:34:20.345Z,99092.44
2022-10-23T15:36:49.328Z,99135.28
2022-10-23T15:39:19.394Z,99132.69
2022-10-23T15:41:56.069Z,99104.41
2022-10-23T15:44:26.075Z,99097.53
2022-10-23T15:46:57.070Z,99122.34
2022-10-23T15:49:26.217Z,99129.22
2022-10-23T15:51:54.820Z,99102.63
2022-10-23T15:54:23.855Z,99123.16
2022-10-23T15:56:55.567Z,99122.31
2022-10-23T15:59:26.029Z,99123.19
2022-10-23T16:01:55.751Z,99127.47
2022-10-23T16:04:24.553Z,99094.91
2022-10-23T16:06:53.119Z,99090.66
2022-10-23T16:09:21.653Z,99132.56
2022-10-23T16:11:50.178Z,99124.81
2022-10-23T16:14:20.238Z,99118.81
2022-10-23T16:16:48.810Z,99098.25
2022-10-23T16:19:17.336Z,99093.09
2022-10-23T16:21:45.772Z,99119.63
2022-10-23T16:24:14.309Z,99118.81
2022-10-23T16:26:42.805Z,99118.78
2022-10-23T16:29:12.457Z,99117.94
2022-10-23T16:31:42.348Z,99114.47
2022-10-23T16:34:11.945Z,99115.31
2022-10-23T16:36:40.486Z,99108.44
2022-10-23T16:39:10.212Z,99102.44
2022-10-23T16:41:57.263Z,99099.94
2022-10-23T16:44:30.731Z,99105.94
2022-10-23T16:47:02.292Z,99102.53
2022-10-23T16:49:32.322Z,99092.19
2022-10-23T16:52:00.803Z,99093.91
2022-10-23T16:54:29.256Z,99101.59
2022-10-23T16:56:58.774Z,99087.00
2022-10-23T16:59:27.322Z,99093.00
2022-10-23T17:01:55.834Z,99060.44
2022-10-23T17:04:25.772Z,99058.69
2022-10-23T17:06:54.228Z,99088.66
2022-10-23T17:09:23.752Z,99068.06
2022-10-23T17:11:53.942Z,99067.13
2022-10-23T17:14:25.191Z,99069.72
2022-10-23T17:16:55.103Z,99072.28
2022-10-23T17:19:47.019Z,99019.22
2022-10-23T17:22:16.078Z,99033.72
2022-10-23T17:24:47.448Z,99036.28
2022-10-23T17:27:18.943Z,99035.38
2022-10-23T17:29:47.454Z,99040.53
2022-10-23T17:32:15.936Z,99011.38
2022-10-23T17:34:46.696Z,99045.63
2022-10-23T17:37:15.055Z,99046.47
2022-10-23T17:39:43.559Z,99023.31
2022-10-23T17:42:12.936Z,99044.75
2022-10-23T17:44:41.359Z,99028.41
2022-10-23T17:47:09.867Z,99032.72
2022-10-23T17:49:39.628Z,99040.41
2022-10-23T17:52:14.420Z,98995.91
2022-10-23T17:54:43.410Z,99025.81
2022-10-23T17:57:11.832Z,99029.22
2022-10-23T17:59:40.243Z,99024.06
2022-10-23T18:02:13.119Z,99022.41
2022-10-23T18:04:41.700Z,99022.38
2022-10-23T18:07:11.573Z,99018.94
2022-10-23T18:09:40.113Z,99018.09
2022-10-23T18:12:08.692Z,99009.47
2022-10-23T18:14:37.834Z,99014.59
2022-10-23T18:17:06.244Z,98988.88
2022-10-23T18:19:34.738Z,98976.94
2022-10-23T18:22:03.127Z,99013.72
2022-10-23T18:24:33.010Z,99003.44
2022-10-23T18:27:01.426Z,98994.88
2022-10-23T18:29:30.954Z,98997.44
2022-10-23T18:31:59.814Z,99000.88
2022-10-23T18:34:28.367Z,99008.56
2022-10-23T18:36:56.911Z,98981.13
2022-10-23T18:39:27.151Z,98998.28
2022-10-23T18:41:58.080Z,99000.84
2022-10-23T18:44:29.213Z,99006.84
2022-10-23T18:46:59.076Z,98996.50
2022-10-23T18:49:27.907Z,98987.91
2022-10-23T18:51:56.506Z,98996.56
2022-10-23T18:54:24.947Z,98982.88
2022-10-23T18:56:53.666Z,98991.44
2022-10-23T18:59:24.315Z,98952.00
2022-10-23T19:01:52.872Z,98977.69
2022-10-23T19:04:21.440Z,98990.47
2022-10-23T19:06:51.040Z,98977.59
2022-10-23T19:09:19.608Z,98978.44
2022-10-23T19:11:48.222Z,98977.63
2022-10-23T19:14:16.640Z,98983.66
2022-10-23T19:16:54.358Z,98954.47
2022-10-23T19:19:24.919Z,98976.75
2022-10-23T19:21:53.749Z,98987.91
2022-10-23T19:24:25.563Z,98987.06
2022-10-23T19:26:54.046Z,98964.06
2022-10-23T19:29:23.916Z,98984.59
2022-10-23T19:31:54.441Z,98942.75
2022-10-23T19:34:25.322Z,98947.97
2022-10-23T19:36:54.832Z,98982.25
2022-10-23T19:39:26.730Z,98936.91
2022-10-23T19:42:05.241Z,98970.31
2022-10-23T19:44:34.069Z,98956.66
2022-10-23T19:47:04.339Z,98972.91
2022-10-23T19:49:32.813Z,98971.22
2022-10-23T19:52:01.203Z,98971.22
2022-10-23T19:54:30.282Z,98964.47
2022-10-23T19:56:58.914Z,98976.44
2022-10-23T19:59:27.472Z,98938.78
2022-10-23T20:01:56.106Z,98975.59
2022-10-23T20:04:26.340Z,98947.38
2022-10-23T20:06:54.901Z,98970.50
2022-10-23T20:09:24.055Z,98935.41
2022-10-23T20:11:55.213Z,98964.50
2022-10-23T20:14:23.686Z,98961.97
2022-10-23T20:16:55.682Z,98961.94
2022-10-23T20:19:25.959Z,98965.38
2022-10-23T20:21:54.497Z,98923.44
2022-10-23T20:24:23.171Z,98939.75
2022-10-23T20:26:55.489Z,98956.84
2022-10-23T20:29:24.820Z,98929.47
2022-10-23T20:31:53.747Z,98923.50
2022-10-23T20:34:22.249Z,98954.31
2022-10-23T20:36:52.143Z,98951.72
2022-10-23T20:39:25.576Z,98946.63
2022-10-23T20:41:55.334Z,98922.69
2022-10-23T20:44:24.759Z,98952.59
2022-10-23T20:46:53.522Z,98945.75
2022-10-23T20:49:22.296Z,98920.09
2022-10-23T20:51:55.215Z,98940.59
2022-10-23T20:54:24.568Z,98948.34
2022-10-23T20:56:52.987Z,98944.94
2022-10-23T20:59:21.543Z,98945.75
2022-10-23T21:01:53.239Z,98937.19
2022-10-23T21:04:26.583Z,98934.63
2022-10-23T21:07:09.596Z,98943.19
2022-10-23T21:09:39.029Z,98932.03
2022-10-23T21:12:08.018Z,98926.97
2022-10-23T21:14:36.591Z,98917.53
2022-10-23T21:17:05.943Z,98926.88
2022-10-23T21:19:34.427Z,98915.78
2022-10-23T21:22:04.278Z,98931.16
2022-10-23T21:24:32.811Z,98924.34
2022-10-23T21:27:01.323Z,98932.91
2022-10-23T21:29:29.849Z,98926.03
2022-10-23T21:32:01.189Z,98925.19
2022-10-23T21:34:31.341Z,98911.50
2022-10-23T21:37:12.502Z,98937.19
2022-10-23T21:39:43.774Z,98940.66
2022-10-23T21:42:12.608Z,98919.22
2022-10-23T21:44:41.144Z,98936.34
2022-10-23T21:47:09.556Z,98928.66
2022-10-23T21:49:38.087Z,98935.47
2022-10-23T21:52:06.613Z,98933.78
2022-10-23T21:54:35.019Z,98932.06
2022-10-23T21:57:04.934Z,98933.81
2022-10-23T21:59:36.085Z,98934.69
2022-10-23T22:02:05.122Z,98918.47
2022-10-23T22:04:33.645Z,98922.75
2022-10-23T22:07:02.901Z,98927.03
2022-10-23T22:09:32.376Z,98937.28
2022-10-23T22:12:01.343Z,98923.63
2022-10-23T22:14:31.251Z,98940.75
2022-10-23T22:16:59.702Z,98942.44
2022-10-23T22:19:28.028Z,98943.31
2022-10-23T22:21:59.301Z,98936.50
2022-10-23T22:24:27.724Z,98940.78
2022-10-23T22:26:57.280Z,98935.59
2022-10-23T22:29:27.580Z,98932.19
2022-10-23T22:31:57.251Z,98915.94
2022-10-23T22:34:48.308Z,98945.91
2022-10-23T22:37:15.772Z,98933.03
2022-10-23T22:39:44.194Z,98925.31
2022-10-23T22:42:12.590Z,98941.59
2022-10-23T22:44:40.946Z,98914.19
2022-10-23T22:47:10.620Z,98933.03
2022-10-23T22:49:39.549Z,98908.22
2022-10-23T22:52:07.836Z,98924.47
2022-10-23T22:54:36.145Z,98929.63
2022-10-23T22:57:04.572Z,98914.19
2022-10-23T22:59:32.913Z,98922.72
2022-10-23T23:02:01.219Z,98910.78
2022-10-23T23:04:38.924Z,98923.56
2022-10-23T23:07:08.537Z,98930.44
2022-10-23T23:09:38.832Z,98927.88
2022-10-23T23:12:07.713Z,98933.88
2022-10-23T23:14:36.014Z,98930.44
2022-10-23T23:17:04.413Z,98929.59
2022-10-23T23:19:34.383Z,98932.16
2022-10-23T23:22:03.672Z,98932.97
2022-10-23T23:24:32.288Z,98935.56
2022-10-23T23:27:00.646Z,98934.72
2022-10-23T23:29:29.765Z,98946.69
2022-10-23T23:31:58.230Z,98945.84
2022-10-23T23:34:26.544Z,98933.00
2022-10-23T23:36:56.278Z,98933.88
2022-10-23T23:39:26.196Z,98946.75
2022-10-23T23:41:54.531Z,98948.44
2022-10-23T23:44:23.029Z,98917.66
2022-10-23T23:46:51.322Z,98938.19
2022-10-23T23:49:19.622Z,98942.47
2022-10-23T23:51:47.964Z,98927.06
2022-10-23T23:54:17.838Z,98939.91
2022-10-23T23:56:46.111Z,98917.66
2022-10-23T23:59:14.360Z,98939.91
